createdAt,value
2023-03-25T00:01:52.232Z,11.10
2023-03-25T00:06:02.312Z,11.10
2023-03-25T00:10:15.072Z,11.10
2023-03-25T00:14:26.450Z,11.10
2023-03-25T00:18:35.905Z,11.20
2023-03-25T00:22:45.412Z,11.20
2023-03-25T00:26:56.394Z,11.20
2023-03-25T00:31:07.903Z,11.20
2023-03-25T00:35:18.123Z,11.20
2023-03-25T00:39:27.439Z,11.10
2023-03-25T00:43:38.332Z,11.10
2023-03-25T00:47:47.473Z,11.00
2023-03-25T00:51:57.602Z,11.00
2023-03-25T00:56:07.732Z,11.00
2023-03-25T01:00:20.208Z,11.00
2023-03-25T01:04:30.064Z,10.90
2023-03-25T01:08:39.816Z,10.90
2023-03-25T01:12:49.610Z,10.90
2023-03-25T01:17:01.609Z,10.90
2023-03-25T01:21:10.976Z,10.90
2023-03-25T01:25:20.419Z,11.00
2023-03-25T01:29:29.756Z,11.10
2023-03-25T01:33:41.598Z,11.10
2023-03-25T01:37:50.726Z,11.10
2023-03-25T01:41:59.964Z,11.10
2023-03-25T01:46:16.916Z,11.10
2023-03-25T01:50:30.439Z,11.10
2023-03-25T01:54:40.711Z,11.10
2023-03-25T01:58:52.210Z,11.20
2023-03-25T02:03:04.041Z,11.10
2023-03-25T02:07:22.587Z,11.10
2023-03-25T02:11:35.106Z,11.10
2023-03-25T02:16:09.080Z,11.20
2023-03-25T02:20:42.396Z,11.10
2023-03-25T02:25:23.237Z,11.20
2023-03-25T02:29:59.480Z,11.20
2023-03-25T02:34:31.841Z,11.20
2023-03-25T02:38:49.793Z,11.10
2023-03-25T02:43:03.650Z,11.10
2023-03-25T02:47:19.682Z,11.00
2023-03-25T02:51:33.046Z,10.90
2023-03-25T02:55:50.488Z,10.90
2023-03-25T03:00:01.337Z,10.90
2023-03-25T03:04:10.759Z,11.00
2023-03-25T03:08:36.027Z,10.90
2023-03-25T03:13:00.680Z,10.90
2023-03-25T03:17:18.816Z,10.90
2023-03-25T03:21:38.657Z,10.90
2023-03-25T03:25:53.269Z,10.90
2023-03-25T03:30:13.554Z,10.90
2023-03-25T03:34:32.914Z,10.90
2023-03-25T03:38:47.188Z,10.90
2023-03-25T03:42:59.855Z,11.00
2023-03-25T03:47:16.222Z,11.00
2023-03-25T03:51:29.830Z,11.00
2023-03-25T03:55:43.266Z,11.00
2023-03-25T03:59:59.616Z,11.10
2023-03-25T04:04:12.732Z,11.10
2023-03-25T04:08:29.484Z,11.10
2023-03-25T04:12:42.710Z,11.10
2023-03-25T04:16:53.510Z,11.00
2023-03-25T04:21:04.604Z,10.80
2023-03-25T04:25:16.339Z,10.70
2023-03-25T04:29:26.035Z,10.80
2023-03-25T04:33:36.277Z,10.80
2023-03-25T04:37:49.313Z,10.90
2023-03-25T04:41:58.613Z,11.00
2023-03-25T04:46:08.394Z,11.00
2023-03-25T04:50:22.464Z,10.90
2023-03-25T04:54:33.541Z,10.90
2023-03-25T04:58:43.204Z,10.80
2023-03-25T05:02:54.445Z,10.70
2023-03-25T05:07:04.062Z,10.60
2023-03-25T05:11:15.475Z,10.50
2023-03-25T05:15:25.495Z,10.50
2023-03-25T05:19:35.566Z,10.50
2023-03-25T05:23:44.999Z,10.60
2023-03-25T05:27:55.877Z,10.70
2023-03-25T05:32:05.138Z,10.70
2023-03-25T05:36:16.836Z,10.70
2023-03-25T05:40:26.729Z,10.80
2023-03-25T05:44:39.086Z,10.80
2023-03-25T05:48:48.823Z,10.90
2023-03-25T05:53:01.163Z,10.90
2023-03-25T05:57:10.730Z,10.90
2023-03-25T06:01:32.670Z,10.90
2023-03-25T06:05:43.319Z,10.90
2023-03-25T06:09:54.688Z,10.90
2023-03-25T06:14:03.962Z,10.90
2023-03-25T06:18:15.062Z,10.90
2023-03-25T06:22:24.393Z,10.90
2023-03-25T06:26:33.884Z,10.90
2023-03-25T06:30:44.129Z,11.00
2023-03-25T06:34:55.008Z,11.10
2023-03-25T06:39:05.488Z,11.10
2023-03-25T06:43:15.035Z,11.10
2023-03-25T06:47:24.823Z,11.20
2023-03-25T06:51:35.672Z,11.30
2023-03-25T06:55:46.428Z,11.30
2023-03-25T06:59:55.789Z,11.30
2023-03-25T07:04:05.167Z,11.40
2023-03-25T07:08:16.320Z,11.40
2023-03-25T07:12:26.217Z,11.50
2023-03-25T07:16:36.988Z,11.50
2023-03-25T07:20:46.796Z,11.60
2023-03-25T07:24:58.771Z,11.60
2023-03-25T07:29:08.124Z,11.70
2023-03-25T07:33:17.699Z,11.70
2023-03-25T07:37:26.958Z,11.70
2023-03-25T07:41:37.828Z,11.80
2023-03-25T07:45:47.512Z,11.80
2023-03-25T07:49:58.407Z,11.90
2023-03-25T07:54:08.837Z,11.90
2023-03-25T08:02:54.323Z,12.00
2023-03-25T08:07:05.990Z,12.10
2023-03-25T08:11:33.202Z,12.20
2023-03-25T08:15:45.907Z,12.30
2023-03-25T08:19:55.607Z,12.30
2023-03-25T08:24:05.200Z,12.30
2023-03-25T08:28:18.253Z,12.40
2023-03-25T08:32:30.732Z,12.50
2023-03-25T08:36:40.870Z,12.50
2023-03-25T08:40:50.921Z,12.50
2023-03-25T08:45:00.127Z,12.60
2023-03-25T08:49:11.134Z,12.60
2023-03-25T08:53:21.324Z,12.60
2023-03-25T08:57:31.668Z,12.60
2023-03-25T09:01:42.692Z,12.80
2023-03-25T09:05:54.282Z,12.70
2023-03-25T09:10:04.397Z,12.80
2023-03-25T09:14:14.232Z,12.70
2023-03-25T09:18:28.520Z,12.80
2023-03-25T09:22:39.726Z,12.80
2023-03-25T09:26:49.198Z,12.80
2023-03-25T09:30:59.105Z,12.90
2023-03-25T09:35:10.891Z,12.90
2023-03-25T09:39:24.087Z,12.90
2023-03-25T09:43:42.092Z,13.00
2023-03-25T09:47:59.398Z,13.10
2023-03-25T09:52:19.700Z,13.20
2023-03-25T09:56:34.399Z,13.30
2023-03-25T10:00:45.909Z,13.30
2023-03-25T10:05:19.916Z,13.30
2023-03-25T10:09:41.162Z,13.40
2023-03-25T10:13:57.392Z,13.50
2023-03-25T10:18:19.945Z,13.50
2023-03-25T10:22:33.209Z,13.50
2023-03-25T10:26:49.342Z,13.80
2023-03-25T10:31:00.707Z,13.80
2023-03-25T10:35:17.465Z,13.80
2023-03-25T10:39:34.469Z,13.80
2023-03-25T10:43:45.052Z,13.80
2023-03-25T10:48:03.488Z,13.70
2023-03-25T10:52:13.694Z,13.60
2023-03-25T10:56:27.539Z,13.60
2023-03-25T11:00:37.195Z,13.50
2023-03-25T11:09:18.877Z,13.50
2023-03-25T11:13:30.117Z,13.60
2023-03-25T11:17:45.713Z,13.60
2023-03-25T11:22:02.717Z,13.70
2023-03-25T11:26:27.592Z,13.80
2023-03-25T11:30:37.023Z,13.80
2023-03-25T11:34:50.006Z,13.80
2023-03-25T11:39:02.777Z,13.80
2023-03-25T11:43:13.856Z,13.80
2023-03-25T11:47:27.268Z,13.90
2023-03-25T11:51:37.666Z,13.90
2023-03-25T11:55:50.407Z,14.00
2023-03-25T12:00:13.320Z,14.10
2023-03-25T12:04:25.421Z,14.30
2023-03-25T12:09:04.098Z,14.50
2023-03-25T12:13:27.549Z,14.90
2023-03-25T12:17:55.189Z,14.80
2023-03-25T12:22:20.171Z,14.80
2023-03-25T12:26:42.429Z,14.90
2023-03-25T12:31:02.971Z,15.00
2023-03-25T12:35:28.714Z,15.30
2023-03-25T12:39:55.222Z,15.60
2023-03-25T12:44:12.834Z,15.80
2023-03-25T12:48:47.331Z,15.80
2023-03-25T12:53:06.174Z,16.00
2023-03-25T12:57:30.526Z,15.90
2023-03-25T13:02:02.304Z,16.10
2023-03-25T13:06:22.049Z,16.20
2023-03-25T13:11:20.329Z,16.00
2023-03-25T13:15:43.092Z,15.90
2023-03-25T13:19:54.487Z,15.90
2023-03-25T13:25:11.993Z,15.90
2023-03-25T13:34:23.300Z,15.40
2023-03-25T13:38:41.763Z,15.10
2023-03-25T13:43:00.932Z,14.90
2023-03-25T13:47:35.749Z,14.80
2023-03-25T13:52:01.473Z,14.70
2023-03-25T13:56:45.628Z,14.60
2023-03-25T14:01:34.512Z,14.70
2023-03-25T14:06:24.417Z,14.80
2023-03-25T14:11:13.435Z,14.80
2023-03-25T14:15:25.540Z,14.70
2023-03-25T14:19:38.952Z,14.70
2023-03-25T14:23:48.957Z,14.80
2023-03-25T14:27:59.841Z,14.80
2023-03-25T14:32:32.682Z,14.90
2023-03-25T14:37:16.073Z,15.00
2023-03-25T14:42:07.554Z,14.90
2023-03-25T14:46:24.090Z,15.10
2023-03-25T14:50:36.105Z,15.10
2023-03-25T14:54:46.046Z,15.00
2023-03-25T14:58:58.791Z,14.90
2023-03-25T15:03:14.169Z,14.70
2023-03-25T15:07:43.260Z,14.80
2023-03-25T15:11:59.921Z,15.00
2023-03-25T15:16:20.448Z,15.00
2023-03-25T16:00:12.974Z,14.20
2023-03-25T16:05:16.896Z,14.00
2023-03-25T16:09:49.412Z,13.80
2023-03-25T16:24:36.755Z,13.50
2023-03-25T16:28:46.826Z,13.40
2023-03-25T16:33:05.659Z,13.30
2023-03-25T16:37:16.816Z,13.20
2023-03-25T16:41:29.489Z,13.20
2023-03-25T16:45:43.978Z,12.90
2023-03-25T16:50:28.762Z,12.90
2023-03-25T16:59:59.490Z,12.80
2023-03-25T17:09:01.039Z,12.90
2023-03-25T17:13:13.601Z,12.80
2023-03-25T17:17:38.877Z,12.80
2023-03-25T17:22:05.108Z,12.80
2023-03-25T17:26:24.540Z,12.80
2023-03-25T17:30:43.555Z,12.80
2023-03-25T17:35:10.845Z,12.10
2023-03-25T17:39:32.506Z,11.60
2023-03-25T17:43:48.472Z,11.50
2023-03-25T17:47:57.939Z,11.30
2023-03-25T17:52:11.794Z,11.00
2023-03-25T17:56:25.506Z,11.00
2023-03-25T18:00:35.997Z,11.00
2023-03-25T18:04:45.414Z,11.00
2023-03-25T18:08:56.101Z,11.10
2023-03-25T18:13:06.910Z,11.00
2023-03-25T18:27:00.689Z,10.90
2023-03-25T18:31:29.999Z,11.00
2023-03-25T18:35:41.051Z,10.90
2023-03-25T18:39:51.092Z,10.90
2023-03-25T18:44:02.495Z,10.90
2023-03-25T18:48:21.247Z,10.80
2023-03-25T18:52:31.037Z,10.90
2023-03-25T19:11:08.021Z,10.80
2023-03-25T19:15:47.280Z,10.70
2023-03-25T19:20:02.172Z,10.70
2023-03-25T19:33:24.371Z,10.70
2023-03-25T19:37:36.836Z,10.70
2023-03-25T19:41:48.123Z,10.70
2023-03-25T19:46:11.224Z,10.70
2023-03-25T19:50:24.314Z,10.50
2023-03-25T19:54:38.594Z,10.40
2023-03-25T19:59:07.273Z,10.30
2023-03-25T20:03:35.476Z,10.40
2023-03-25T20:08:01.922Z,10.30
2023-03-25T20:12:22.698Z,10.20
2023-03-25T20:16:36.232Z,10.20
2023-03-25T20:20:48.710Z,10.10
2023-03-25T20:25:03.357Z,9.90
